sensor_id;sensor_type;location;lat;lon;timestamp;pressure;altitude;pressure_sealevel;temperature;humidity
64141;BME280;50436;50.618;7.932;2023-07-20T00:01:15;96396.59;;;14.66;100.00
64141;BME280;50436;50.618;7.932;2023-07-20T00:04:01;96401.38;;;14.74;100.00
64141;BME280;50436;50.618;7.932;2023-07-20T00:06:47;96399.78;;;14.73;100.00
64141;BME280;50436;50.618;7.932;2023-07-20T00:09:33;96401.09;;;14.81;100.00
64141;BME280;50436;50.618;7.932;2023-07-20T00:12:19;96387.91;;;14.80;100.00
64141;BME280;50436;50.618;7.932;2023-07-20T00:15:05;96382.19;;;14.86;100.00
64141;BME280;50436;50.618;7.932;2023-07-20T00:17:51;96391.06;;;14.92;100.00
64141;BME280;50436;50.618;7.932;2023-07-20T00:20:37;96388.38;;;14.92;100.00
64141;BME280;50436;50.618;7.932;2023-07-20T00:23:23;96382.69;;;14.98;100.00
64141;BME280;50436;50.618;7.932;2023-07-20T00:26:08;96377.56;;;15.02;100.00
64141;BME280;50436;50.618;7.932;2023-07-20T00:28:54;96381.38;;;14.91;100.00
64141;BME280;50436;50.618;7.932;2023-07-20T00:31:40;96381.59;;;14.99;100.00
64141;BME280;50436;50.618;7.932;2023-07-20T00:34:26;96375.47;;;14.89;100.00
64141;BME280;50436;50.618;7.932;2023-07-20T00:37:13;96377.28;;;14.98;100.00
64141;BME280;50436;50.618;7.932;2023-07-20T00:39:59;96373.28;;;14.96;100.00
64141;BME280;50436;50.618;7.932;2023-07-20T00:42:45;96381.28;;;15.06;100.00
64141;BME280;50436;50.618;7.932;2023-07-20T00:45:31;96380.72;;;15.14;100.00
64141;BME280;50436;50.618;7.932;2023-07-20T00:48:18;96379.09;;;15.18;100.00
64141;BME280;50436;50.618;7.932;2023-07-20T00:51:04;96389.00;;;15.23;100.00
64141;BME280;50436;50.618;7.932;2023-07-20T00:53:50;96370.41;;;15.26;100.00
64141;BME280;50436;50.618;7.932;2023-07-20T00:56:36;96371.72;;;15.29;100.00
64141;BME280;50436;50.618;7.932;2023-07-20T00:59:23;96382.56;;;15.19;100.00
64141;BME280;50436;50.618;7.932;2023-07-20T01:02:09;96382.81;;;15.22;100.00
64141;BME280;50436;50.618;7.932;2023-07-20T01:04:57;96389.81;;;15.23;100.00
64141;BME280;50436;50.618;7.932;2023-07-20T01:07:48;96381.72;;;15.23;100.00
64141;BME280;50436;50.618;7.932;2023-07-20T01:10:48;96388.13;;;15.32;100.00
64141;BME280;50436;50.618;7.932;2023-07-20T01:13:37;96386.53;;;15.31;100.00
64141;BME280;50436;50.618;7.932;2023-07-20T01:16:23;96395.97;;;15.29;100.00
64141;BME280;50436;50.618;7.932;2023-07-20T01:19:10;96398.91;;;15.32;100.00
64141;BME280;50436;50.618;7.932;2023-07-20T01:33:57;96403.75;;;15.36;100.00
64141;BME280;50436;50.618;7.932;2023-07-20T01:36:44;96388.38;;;15.36;100.00
64141;BME280;50436;50.618;7.932;2023-07-20T01:39:32;96387.81;;;15.39;100.00
64141;BME280;50436;50.618;7.932;2023-07-20T01:42:18;96385.16;;;15.34;100.00
64141;BME280;50436;50.618;7.932;2023-07-20T01:45:05;96391.41;;;15.29;100.00
64141;BME280;50436;50.618;7.932;2023-07-20T01:47:51;96384.63;;;15.32;100.00
64141;BME280;50436;50.618;7.932;2023-07-20T01:50:37;96387.38;;;15.27;100.00
64141;BME280;50436;50.618;7.932;2023-07-20T01:53:23;96388.47;;;15.26;100.00
64141;BME280;50436;50.618;7.932;2023-07-20T01:56:09;96387.91;;;15.24;100.00
64141;BME280;50436;50.618;7.932;2023-07-20T01:58:55;96389.53;;;15.25;100.00
64141;BME280;50436;50.618;7.932;2023-07-20T02:01:41;96397.06;;;15.28;100.00
64141;BME280;50436;50.618;7.932;2023-07-20T02:04:27;96385.72;;;15.31;100.00
64141;BME280;50436;50.618;7.932;2023-07-20T02:07:13;96397.88;;;15.28;100.00
64141;BME280;50436;50.618;7.932;2023-07-20T02:09:59;96391.00;;;15.07;100.00
64141;BME280;50436;50.618;7.932;2023-07-20T02:12:44;96392.06;;;15.11;100.00
64141;BME280;50436;50.618;7.932;2023-07-20T02:15:30;96390.38;;;15.20;100.00
64141;BME280;50436;50.618;7.932;2023-07-20T02:18:16;96376.72;;;15.01;100.00
64141;BME280;50436;50.618;7.932;2023-07-20T02:21:02;96393.53;;;14.88;100.00
64141;BME280;50436;50.618;7.932;2023-07-20T02:23:48;96373.94;;;14.67;100.00
64141;BME280;50436;50.618;7.932;2023-07-20T02:26:34;96393.38;;;14.59;100.00
64141;BME280;50436;50.618;7.932;2023-07-20T02:29:20;96391.53;;;14.49;100.00
64141;BME280;50436;50.618;7.932;2023-07-20T02:32:06;96382.03;;;14.67;100.00
64141;BME280;50436;50.618;7.932;2023-07-20T02:34:52;96384.72;;;14.67;100.00
64141;BME280;50436;50.618;7.932;2023-07-20T02:37:38;96386.03;;;14.80;100.00
64141;BME280;50436;50.618;7.932;2023-07-20T02:40:24;96377.09;;;14.85;100.00
64141;BME280;50436;50.618;7.932;2023-07-20T02:43:10;96365.28;;;14.81;100.00
64141;BME280;50436;50.618;7.932;2023-07-20T02:45:56;96367.44;;;14.79;100.00
64141;BME280;50436;50.618;7.932;2023-07-20T02:48:41;96379.84;;;14.80;100.00
64141;BME280;50436;50.618;7.932;2023-07-20T02:51:27;96369.28;;;14.88;100.00
64141;BME280;50436;50.618;7.932;2023-07-20T02:54:13;96373.00;;;14.92;100.00
64141;BME280;50436;50.618;7.932;2023-07-20T02:56:59;96376.50;;;14.98;100.00
64141;BME280;50436;50.618;7.932;2023-07-20T02:59:45;96370.03;;;14.99;100.00
64141;BME280;50436;50.618;7.932;2023-07-20T03:02:31;96370.28;;;15.02;100.00
64141;BME280;50436;50.618;7.932;2023-07-20T03:05:17;96372.69;;;15.04;100.00
64141;BME280;50436;50.618;7.932;2023-07-20T03:08:03;96374.88;;;14.97;100.00
64141;BME280;50436;50.618;7.932;2023-07-20T03:10:49;96378.69;;;14.91;100.00
64141;BME280;50436;50.618;7.932;2023-07-20T03:13:35;96369.88;;;14.80;100.00
64141;BME280;50436;50.618;7.932;2023-07-20T03:16:24;96375.81;;;14.72;100.00
64141;BME280;50436;50.618;7.932;2023-07-20T03:19:12;96380.94;;;14.68;100.00
64141;BME280;50436;50.618;7.932;2023-07-20T03:21:57;96383.13;;;14.66;100.00
64141;BME280;50436;50.618;7.932;2023-07-20T03:24:43;96384.19;;;14.65;100.00
64141;BME280;50436;50.618;7.932;2023-07-20T03:27:29;96376.13;;;14.60;100.00
64141;BME280;50436;50.618;7.932;2023-07-20T03:30:16;96382.31;;;14.71;100.00
64141;BME280;50436;50.618;7.932;2023-07-20T03:33:02;96377.66;;;14.76;100.00
64141;BME280;50436;50.618;7.932;2023-07-20T03:35:50;96390.28;;;14.86;100.00
64141;BME280;50436;50.618;7.932;2023-07-20T03:38:36;96393.47;;;14.93;100.00
64141;BME280;50436;50.618;7.932;2023-07-20T03:41:22;96386.19;;;14.94;100.00
64141;BME280;50436;50.618;7.932;2023-07-20T03:44:08;96384.63;;;14.88;100.00
64141;BME280;50436;50.618;7.932;2023-07-20T03:46:53;96388.44;;;14.76;100.00
64141;BME280;50436;50.618;7.932;2023-07-20T03:49:39;96397.69;;;14.55;100.00
64141;BME280;50436;50.618;7.932;2023-07-20T03:52:27;96386.91;;;14.65;100.00
64141;BME280;50436;50.618;7.932;2023-07-20T03:55:13;96387.94;;;14.74;100.00
64141;BME280;50436;50.618;7.932;2023-07-20T03:57:59;96389.81;;;14.79;100.00
64141;BME280;50436;50.618;7.932;2023-07-20T04:00:46;96393.31;;;14.80;100.00
64141;BME280;50436;50.618;7.932;2023-07-20T04:03:32;96393.38;;;14.64;100.00
64141;BME280;50436;50.618;7.932;2023-07-20T04:06:19;96398.25;;;14.37;100.00
64141;BME280;50436;50.618;7.932;2023-07-20T04:09:05;96401.25;;;14.15;100.00
64141;BME280;50436;50.618;7.932;2023-07-20T04:11:51;96395.91;;;14.05;100.00
64141;BME280;50436;50.618;7.932;2023-07-20T04:14:36;96396.19;;;13.98;100.00
64141;BME280;50436;50.618;7.932;2023-07-20T04:17:22;96394.56;;;14.07;100.00
64141;BME280;50436;50.618;7.932;2023-07-20T04:20:09;96395.63;;;14.06;100.00
64141;BME280;50436;50.618;7.932;2023-07-20T04:22:55;96392.94;;;14.06;100.00
64141;BME280;50436;50.618;7.932;2023-07-20T04:25:42;96395.34;;;14.18;100.00
64141;BME280;50436;50.618;7.932;2023-07-20T04:28:30;96397.22;;;14.28;100.00
64141;BME280;50436;50.618;7.932;2023-07-20T04:31:17;96399.06;;;14.42;100.00
64141;BME280;50436;50.618;7.932;2023-07-20T04:34:04;96405.22;;;14.63;100.00
64141;BME280;50436;50.618;7.932;2023-07-20T04:36:52;96408.69;;;14.69;100.00
64141;BME280;50436;50.618;7.932;2023-07-20T04:39:40;96390.66;;;14.64;100.00
64141;BME280;50436;50.618;7.932;2023-07-20T04:42:29;96392.88;;;14.42;100.00
64141;BME280;50436;50.618;7.932;2023-07-20T04:45:16;96398.81;;;14.29;100.00
64141;BME280;50436;50.618;7.932;2023-07-20T04:48:12;96410.63;;;14.43;100.00
64141;BME280;50436;50.618;7.932;2023-07-20T04:51:02;96405.75;;;14.55;100.00
64141;BME280;50436;50.618;7.932;2023-07-20T04:53:52;96413.84;;;14.60;100.00
64141;BME280;50436;50.618;7.932;2023-07-20T04:56:38;96409.53;;;14.54;100.00
64141;BME280;50436;50.618;7.932;2023-07-20T04:59:27;96411.13;;;14.65;100.00
64141;BME280;50436;50.618;7.932;2023-07-20T05:02:13;96412.97;;;14.70;100.00
64141;BME280;50436;50.618;7.932;2023-07-20T05:04:59;96408.66;;;14.74;100.00
64141;BME280;50436;50.618;7.932;2023-07-20T05:07:44;96406.25;;;14.72;100.00
64141;BME280;50436;50.618;7.932;2023-07-20T05:10:30;96413.81;;;14.65;100.00
64141;BME280;50436;50.618;7.932;2023-07-20T05:13:17;96404.66;;;14.61;100.00
64141;BME280;50436;50.618;7.932;2023-07-20T05:16:03;96412.97;;;14.70;100.00
64141;BME280;50436;50.618;7.932;2023-07-20T05:18:50;96408.16;;;14.67;100.00
64141;BME280;50436;50.618;7.932;2023-07-20T05:21:37;96397.09;;;14.73;100.00
64141;BME280;50436;50.618;7.932;2023-07-20T05:24:23;96400.53;;;14.84;100.00
64141;BME280;50436;50.618;7.932;2023-07-20T05:27:08;96402.13;;;14.85;100.00
64141;BME280;50436;50.618;7.932;2023-07-20T05:29:54;96404.03;;;14.85;100.00
64141;BME280;50436;50.618;7.932;2023-07-20T05:32:40;96401.84;;;14.97;100.00
64141;BME280;50436;50.618;7.932;2023-07-20T05:35:26;96406.13;;;15.03;100.00
64141;BME280;50436;50.618;7.932;2023-07-20T05:38:12;96406.63;;;15.10;100.00
64141;BME280;50436;50.618;7.932;2023-07-20T05:41:01;96395.28;;;15.13;100.00
64141;BME280;50436;50.618;7.932;2023-07-20T05:44:12;96398.97;;;15.22;100.00
64141;BME280;50436;50.618;7.932;2023-07-20T05:46:58;96395.47;;;15.22;100.00
64141;BME280;50436;50.618;7.932;2023-07-20T05:49:44;96391.41;;;15.29;100.00
64141;BME280;50436;50.618;7.932;2023-07-20T05:52:30;96394.78;;;15.45;100.00
64141;BME280;50436;50.618;7.932;2023-07-20T05:55:08;96393.91;;;15.55;100.00
64141;BME280;50436;50.618;7.932;2023-07-20T05:57:54;96400.53;;;15.33;100.00
64141;BME280;50436;50.618;7.932;2023-07-20T06:00:41;96397.69;;;15.15;100.00
64141;BME280;50436;50.618;7.932;2023-07-20T06:03:27;96397.38;;;15.21;100.00
64141;BME280;50436;50.618;7.932;2023-07-20T06:06:13;96404.88;;;15.29;100.00
64141;BME280;50436;50.618;7.932;2023-07-20T06:09:00;96414.63;;;15.25;100.00
64141;BME280;50436;50.618;7.932;2023-07-20T06:11:50;96414.94;;;15.14;100.00
64141;BME280;50436;50.618;7.932;2023-07-20T06:14:39;96417.44;;;15.44;100.00
64141;BME280;50436;50.618;7.932;2023-07-20T06:17:24;96427.94;;;15.51;100.00
64141;BME280;50436;50.618;7.932;2023-07-20T06:20:11;96419.88;;;15.41;100.00
64141;BME280;50436;50.618;7.932;2023-07-20T06:22:57;96428.38;;;15.68;100.00
64141;BME280;50436;50.618;7.932;2023-07-20T06:25:43;96427.28;;;15.69;100.00
64141;BME280;50436;50.618;7.932;2023-07-20T06:28:29;96423.47;;;15.70;100.00
64141;BME280;50436;50.618;7.932;2023-07-20T06:31:16;96424.03;;;15.72;100.00
64141;BME280;50436;50.618;7.932;2023-07-20T06:34:03;96419.31;;;15.49;100.00
64141;BME280;50436;50.618;7.932;2023-07-20T06:36:49;96434.63;;;15.58;100.00
64141;BME280;50436;50.618;7.932;2023-07-20T06:39:37;96432.00;;;15.87;100.00
64141;BME280;50436;50.618;7.932;2023-07-20T06:42:23;96437.91;;;15.90;100.00
64141;BME280;50436;50.618;7.932;2023-07-20T06:45:09;96430.03;;;15.59;100.00
64141;BME280;50436;50.618;7.932;2023-07-20T06:47:55;96430.03;;;15.64;100.00
64141;BME280;50436;50.618;7.932;2023-07-20T06:50:43;96437.91;;;15.90;100.00
64141;BME280;50436;50.618;7.932;2023-07-20T06:53:30;96437.59;;;15.96;100.00
64141;BME280;50436;50.618;7.932;2023-07-20T06:56:16;96431.28;;;16.06;100.00
64141;BME280;50436;50.618;7.932;2023-07-20T06:59:01;96430.16;;;16.12;100.00
64141;BME280;50436;50.618;7.932;2023-07-20T07:01:48;96431.50;;;16.38;100.00
64141;BME280;50436;50.618;7.932;2023-07-20T07:04:34;96428.19;;;16.47;100.00
64141;BME280;50436;50.618;7.932;2023-07-20T07:07:20;96428.50;;;16.69;100.00
64141;BME280;50436;50.618;7.932;2023-07-20T07:10:08;96431.53;;;16.86;100.00
64141;BME280;50436;50.618;7.932;2023-07-20T07:12:54;96426.28;;;16.76;100.00
64141;BME280;50436;50.618;7.932;2023-07-20T07:15:40;96421.66;;;16.77;100.00
64141;BME280;50436;50.618;7.932;2023-07-20T07:18:26;96432.00;;;16.93;100.00
64141;BME280;50436;50.618;7.932;2023-07-20T07:21:12;96434.25;;;16.86;100.00
64141;BME280;50436;50.618;7.932;2023-07-20T07:23:58;96435.16;;;17.01;100.00
64141;BME280;50436;50.618;7.932;2023-07-20T07:26:45;96438.88;;;16.57;100.00
64141;BME280;50436;50.618;7.932;2023-07-20T07:29:31;96442.47;;;16.76;100.00
64141;BME280;50436;50.618;7.932;2023-07-20T07:32:16;96439.56;;;16.96;100.00
64141;BME280;50436;50.618;7.932;2023-07-20T07:35:03;96433.03;;;16.97;100.00
64141;BME280;50436;50.618;7.932;2023-07-20T07:37:49;96446.16;;;16.85;100.00
64141;BME280;50436;50.618;7.932;2023-07-20T07:40:35;96437.50;;;17.07;100.00
64141;BME280;50436;50.618;7.932;2023-07-20T07:43:20;96432.56;;;17.14;100.00
64141;BME280;50436;50.618;7.932;2023-07-20T07:46:06;96428.25;;;17.32;100.00
64141;BME280;50436;50.618;7.932;2023-07-20T07:48:52;96427.69;;;16.92;100.00
64141;BME280;50436;50.618;7.932;2023-07-20T07:51:38;96436.25;;;16.99;100.00
64141;BME280;50436;50.618;7.932;2023-07-20T07:54:24;96456.13;;;17.09;100.00
64141;BME280;50436;50.618;7.932;2023-07-20T07:57:10;96446.22;;;17.23;100.00
64141;BME280;50436;50.618;7.932;2023-07-20T07:59:56;96445.06;;;17.48;100.00
64141;BME280;50436;50.618;7.932;2023-07-20T08:02:43;96445.72;;;17.59;100.00
64141;BME280;50436;50.618;7.932;2023-07-20T08:05:29;96438.63;;;17.63;100.00
64141;BME280;50436;50.618;7.932;2023-07-20T08:08:14;96438.44;;;18.10;100.00
64141;BME280;50436;50.618;7.932;2023-07-20T08:11:00;96447.50;;;18.33;100.00
64141;BME280;50436;50.618;7.932;2023-07-20T08:13:46;96442.19;;;17.96;100.00
64141;BME280;50436;50.618;7.932;2023-07-20T08:16:32;96439.78;;;17.57;100.00
64141;BME280;50436;50.618;7.932;2023-07-20T08:19:18;96447.59;;;17.58;100.00
64141;BME280;50436;50.618;7.932;2023-07-20T08:22:04;96452.56;;;17.75;100.00
64141;BME280;50436;50.618;7.932;2023-07-20T08:24:50;96457.31;;;17.83;100.00
64141;BME280;50436;50.618;7.932;2023-07-20T08:27:36;96451.78;;;18.21;100.00
64141;BME280;50436;50.618;7.932;2023-07-20T08:30:22;96463.59;;;18.57;100.00
64141;BME280;50436;50.618;7.932;2023-07-20T08:33:16;96482.19;;;18.64;100.00
64141;BME280;50436;50.618;7.932;2023-07-20T08:36:03;96468.06;;;18.95;100.00
64141;BME280;50436;50.618;7.932;2023-07-20T08:38:49;96471.69;;;19.31;100.00
64141;BME280;50436;50.618;7.932;2023-07-20T08:41:38;96468.56;;;19.10;100.00
64141;BME280;50436;50.618;7.932;2023-07-20T08:44:25;96473.56;;;18.62;100.00
64141;BME280;50436;50.618;7.932;2023-07-20T08:47:12;96466.91;;;18.54;100.00
64141;BME280;50436;50.618;7.932;2023-07-20T08:50:00;96464.91;;;18.46;100.00
64141;BME280;50436;50.618;7.932;2023-07-20T08:52:52;96469.22;;;18.47;100.00
64141;BME280;50436;50.618;7.932;2023-07-20T08:55:39;96469.94;;;18.20;100.00
64141;BME280;50436;50.618;7.932;2023-07-20T08:58:26;96463.56;;;18.30;100.00
64141;BME280;50436;50.618;7.932;2023-07-20T09:01:14;96458.44;;;18.75;100.00
64141;BME280;50436;50.618;7.932;2023-07-20T09:04:02;96460.34;;;19.15;100.00
64141;BME280;50436;50.618;7.932;2023-07-20T09:06:49;96456.47;;;19.44;100.00
64141;BME280;50436;50.618;7.932;2023-07-20T09:09:39;96453.47;;;19.45;100.00
64141;BME280;50436;50.618;7.932;2023-07-20T09:12:26;96459.84;;;19.77;100.00
64141;BME280;50436;50.618;7.932;2023-07-20T09:15:12;96471.47;;;19.28;100.00
64141;BME280;50436;50.618;7.932;2023-07-20T09:18:01;96468.47;;;18.88;100.00
64141;BME280;50436;50.618;7.932;2023-07-20T09:20:48;96464.47;;;18.85;100.00
64141;BME280;50436;50.618;7.932;2023-07-20T09:23:36;96463.38;;;19.00;100.00
64141;BME280;50436;50.618;7.932;2023-07-20T09:26:22;96455.97;;;19.42;100.00
64141;BME280;50436;50.618;7.932;2023-07-20T09:29:07;96457.34;;;19.67;100.00
64141;BME280;50436;50.618;7.932;2023-07-20T09:32:02;96446.25;;;19.77;100.00
64141;BME280;50436;50.618;7.932;2023-07-20T09:34:51;96449.03;;;19.86;100.00
64141;BME280;50436;50.618;7.932;2023-07-20T09:37:38;96459.03;;;19.99;100.00
64141;BME280;50436;50.618;7.932;2023-07-20T09:40:24;96457.09;;;19.99;100.00
64141;BME280;50436;50.618;7.932;2023-07-20T09:43:10;96459.53;;;20.01;100.00
64141;BME280;50436;50.618;7.932;2023-07-20T09:45:59;96443.25;;;20.01;100.00
64141;BME280;50436;50.618;7.932;2023-07-20T09:48:52;96446.25;;;19.77;100.00
64141;BME280;50436;50.618;7.932;2023-07-20T09:51:40;96456.44;;;19.94;100.00
64141;BME280;50436;50.618;7.932;2023-07-20T09:54:27;96432.97;;;20.20;100.00
64141;BME280;50436;50.618;7.932;2023-07-20T09:57:14;96443.78;;;20.65;100.00
64141;BME280;50436;50.618;7.932;2023-07-20T10:00:00;96438.97;;;20.62;100.00
64141;BME280;50436;50.618;7.932;2023-07-20T10:02:49;96447.91;;;20.94;98.72
64141;BME280;50436;50.618;7.932;2023-07-20T10:05:40;96438.63;;;20.86;99.54
64141;BME280;50436;50.618;7.932;2023-07-20T10:08:29;96448.91;;;21.06;100.00
64141;BME280;50436;50.618;7.932;2023-07-20T10:11:16;96444.78;;;21.18;98.76
64141;BME280;50436;50.618;7.932;2023-07-20T10:14:03;96446.63;;;21.74;94.28
64141;BME280;50436;50.618;7.932;2023-07-20T10:16:55;96439.75;;;20.94;98.65
64141;BME280;50436;50.618;7.932;2023-07-20T10:19:47;96448.66;;;20.46;98.62
64141;BME280;50436;50.618;7.932;2023-07-20T10:22:36;96451.41;;;20.01;100.00
64141;BME280;50436;50.618;7.932;2023-07-20T10:25:23;96454.59;;;20.25;98.64
64141;BME280;50436;50.618;7.932;2023-07-20T10:28:10;96453.19;;;20.59;98.15
64141;BME280;50436;50.618;7.932;2023-07-20T10:30:56;96444.84;;;21.44;96.13
64141;BME280;50436;50.618;7.932;2023-07-20T10:33:44;96435.41;;;21.93;89.50
64141;BME280;50436;50.618;7.932;2023-07-20T10:36:30;96426.75;;;22.08;88.53
64141;BME280;50436;50.618;7.932;2023-07-20T10:39:30;96421.31;;;22.17;87.93
64141;BME280;50436;50.618;7.932;2023-07-20T10:42:16;96429.31;;;21.53;92.74
64141;BME280;50436;50.618;7.932;2023-07-20T10:45:02;96432.91;;;21.13;95.23
64141;BME280;50436;50.618;7.932;2023-07-20T10:47:49;96418.75;;;21.86;93.25
64141;BME280;50436;50.618;7.932;2023-07-20T10:50:35;96412.03;;;22.65;89.40
64141;BME280;50436;50.618;7.932;2023-07-20T10:53:21;96410.94;;;22.57;88.76
64141;BME280;50436;50.618;7.932;2023-07-20T10:56:15;96413.72;;;22.78;86.75
64141;BME280;50436;50.618;7.932;2023-07-20T10:59:17;96415.16;;;23.22;82.20
64141;BME280;50436;50.618;7.932;2023-07-20T11:02:07;96418.69;;;23.44;77.89
64141;BME280;50436;50.618;7.932;2023-07-20T11:04:54;96415.47;;;24.04;78.81
64141;BME280;50436;50.618;7.932;2023-07-20T11:07:41;96418.69;;;24.06;75.06
64141;BME280;50436;50.618;7.932;2023-07-20T11:10:27;96412.28;;;23.40;76.10
64141;BME280;50436;50.618;7.932;2023-07-20T11:13:19;96408.94;;;23.13;78.22
64141;BME280;50436;50.618;7.932;2023-07-20T11:16:05;96409.81;;;23.76;76.54
64141;BME280;50436;50.618;7.932;2023-07-20T11:18:51;96407.03;;;24.30;68.44
64141;BME280;50436;50.618;7.932;2023-07-20T11:21:38;96415.72;;;23.78;74.75
64141;BME280;50436;50.618;7.932;2023-07-20T11:24:26;96405.22;;;24.01;76.47
64141;BME280;50436;50.618;7.932;2023-07-20T11:27:13;96401.75;;;24.46;69.76
64141;BME280;50436;50.618;7.932;2023-07-20T11:29:58;96410.19;;;24.53;69.62
64141;BME280;50436;50.618;7.932;2023-07-20T11:32:48;96403.56;;;24.09;68.82
64141;BME280;50436;50.618;7.932;2023-07-20T11:35:44;96402.69;;;23.33;73.29
64141;BME280;50436;50.618;7.932;2023-07-20T11:38:32;96411.09;;;22.61;76.83
64141;BME280;50436;50.618;7.932;2023-07-20T11:41:18;96414.72;;;22.01;75.46
64141;BME280;50436;50.618;7.932;2023-07-20T11:44:04;96409.47;;;21.61;79.18
64141;BME280;50436;50.618;7.932;2023-07-20T11:47:09;96411.41;;;21.52;80.21
64141;BME280;50436;50.618;7.932;2023-07-20T11:50:02;96415.56;;;21.40;80.98
64141;BME280;50436;50.618;7.932;2023-07-20T11:52:48;96409.94;;;21.37;83.43
64141;BME280;50436;50.618;7.932;2023-07-20T11:55:35;96410.28;;;21.53;84.52
64141;BME280;50436;50.618;7.932;2023-07-20T11:58:21;96409.78;;;21.68;84.37
64141;BME280;50436;50.618;7.932;2023-07-20T12:01:07;96404.47;;;22.15;84.04
64141;BME280;50436;50.618;7.932;2023-07-20T12:03:54;96407.31;;;22.83;80.53
64141;BME280;50436;50.618;7.932;2023-07-20T12:06:40;96401.00;;;25.31;68.57
64141;BME280;50436;50.618;7.932;2023-07-20T12:09:28;96391.84;;;28.66;42.89
64141;BME280;50436;50.618;7.932;2023-07-20T12:12:14;96397.13;;;28.74;41.19
64141;BME280;50436;50.618;7.932;2023-07-20T12:18:05;96385.88;;;34.51;27.14
64141;BME280;50436;50.618;7.932;2023-07-20T12:20:58;96376.09;;;34.84;24.63
64141;BME280;50436;50.618;7.932;2023-07-20T12:23:45;96381.16;;;36.47;23.40
64141;BME280;50436;50.618;7.932;2023-07-20T12:26:32;96381.00;;;36.85;22.14
64141;BME280;50436;50.618;7.932;2023-07-20T12:29:20;96374.84;;;38.07;20.69
64141;BME280;50436;50.618;7.932;2023-07-20T12:32:07;96376.31;;;36.78;21.80
64141;BME280;50436;50.618;7.932;2023-07-20T12:34:53;96373.34;;;31.83;28.63
64141;BME280;50436;50.618;7.932;2023-07-20T12:37:39;96372.38;;;29.50;29.92
64141;BME280;50436;50.618;7.932;2023-07-20T12:40:25;96376.72;;;32.49;27.89
64141;BME280;50436;50.618;7.932;2023-07-20T12:43:11;96357.81;;;36.92;21.48
64141;BME280;50436;50.618;7.932;2023-07-20T12:45:57;96365.09;;;34.04;25.45
64141;BME280;50436;50.618;7.932;2023-07-20T12:48:43;96375.16;;;29.27;32.15
64141;BME280;50436;50.618;7.932;2023-07-20T12:51:32;96386.16;;;27.74;41.61
64141;BME280;50436;50.618;7.932;2023-07-20T12:54:18;96386.25;;;26.16;45.83
64141;BME280;50436;50.618;7.932;2023-07-20T12:57:04;96386.75;;;25.66;51.84
64141;BME280;50436;50.618;7.932;2023-07-20T12:59:50;96375.50;;;25.43;55.79
64141;BME280;50436;50.618;7.932;2023-07-20T13:02:37;96384.38;;;25.52;54.59
64141;BME280;50436;50.618;7.932;2023-07-20T13:05:24;96380.03;;;25.63;51.81
64141;BME280;50436;50.618;7.932;2023-07-20T13:08:10;96380.22;;;26.38;48.83
64141;BME280;50436;50.618;7.932;2023-07-20T13:10:56;96381.63;;;27.11;44.68
64141;BME280;50436;50.618;7.932;2023-07-20T13:13:42;96373.31;;;26.01;48.34
64141;BME280;50436;50.618;7.932;2023-07-20T13:16:28;96370.91;;;25.71;51.16
64141;BME280;50436;50.618;7.932;2023-07-20T13:19:16;96380.75;;;25.48;54.08
64141;BME280;50436;50.618;7.932;2023-07-20T13:22:02;96380.97;;;24.33;57.19
64141;BME280;50436;50.618;7.932;2023-07-20T13:24:48;96375.44;;;24.66;60.12
64141;BME280;50436;50.618;7.932;2023-07-20T13:27:37;96381.03;;;25.31;53.87
64141;BME280;50436;50.618;7.932;2023-07-20T13:30:25;96375.00;;;25.13;52.67
64141;BME280;50436;50.618;7.932;2023-07-20T13:33:11;96387.41;;;24.61;55.48
64141;BME280;50436;50.618;7.932;2023-07-20T13:35:57;96384.22;;;24.26;57.37
64141;BME280;50436;50.618;7.932;2023-07-20T13:38:45;96386.31;;;23.96;60.14
64141;BME280;50436;50.618;7.932;2023-07-20T13:41:31;96380.38;;;23.61;62.59
64141;BME280;50436;50.618;7.932;2023-07-20T13:44:17;96385.47;;;23.21;63.17
64141;BME280;50436;50.618;7.932;2023-07-20T13:47:04;96389.56;;;23.06;66.25
64141;BME280;50436;50.618;7.932;2023-07-20T13:49:53;96386.22;;;23.00;68.42
64141;BME280;50436;50.618;7.932;2023-07-20T13:52:38;96384.19;;;22.80;68.33
64141;BME280;50436;50.618;7.932;2023-07-20T13:55:24;96383.44;;;22.41;74.39
64141;BME280;50436;50.618;7.932;2023-07-20T13:58:10;96387.72;;;22.51;76.38
64141;BME280;50436;50.618;7.932;2023-07-20T14:00:59;96379.66;;;22.55;76.32
64141;BME280;50436;50.618;7.932;2023-07-20T14:03:45;96383.50;;;23.00;73.45
64141;BME280;50436;50.618;7.932;2023-07-20T14:06:32;96382.31;;;22.72;75.62
64141;BME280;50436;50.618;7.932;2023-07-20T14:09:18;96367.13;;;24.74;63.73
64141;BME280;50436;50.618;7.932;2023-07-20T14:12:04;96356.38;;;27.06;45.50
64141;BME280;50436;50.618;7.932;2023-07-20T14:14:50;96364.88;;;26.69;47.05
64141;BME280;50436;50.618;7.932;2023-07-20T14:17:36;96360.44;;;27.47;46.01
64141;BME280;50436;50.618;7.932;2023-07-20T14:20:22;96350.38;;;28.55;40.98
64141;BME280;50436;50.618;7.932;2023-07-20T14:23:08;96360.34;;;28.40;40.82
64141;BME280;50436;50.618;7.932;2023-07-20T14:25:54;96345.50;;;33.06;28.78
64141;BME280;50436;50.618;7.932;2023-07-20T14:28:40;96337.91;;;35.75;24.36
64141;BME280;50436;50.618;7.932;2023-07-20T14:31:26;96343.94;;;33.08;25.86
64141;BME280;50436;50.618;7.932;2023-07-20T14:34:11;96343.69;;;29.02;32.32
64141;BME280;50436;50.618;7.932;2023-07-20T14:37:01;96345.13;;;28.04;37.31
64141;BME280;50436;50.618;7.932;2023-07-20T14:39:48;96342.06;;;28.51;38.62
64141;BME280;50436;50.618;7.932;2023-07-20T14:42:34;96341.91;;;28.41;37.67
64141;BME280;50436;50.618;7.932;2023-07-20T14:45:20;96349.56;;;28.31;37.12
64141;BME280;50436;50.618;7.932;2023-07-20T14:48:05;96330.44;;;28.39;36.57
64141;BME280;50436;50.618;7.932;2023-07-20T14:50:51;96344.00;;;28.28;39.08